sensor_id;sensor_type;location;lat;lon;timestamp;pressure;altitude;pressure_sealevel;temperature;humidity
36404;BME280;22437;55.646;37.518;2022-09-03T00:00:11;99210.34;;;8.61;62.89
36404;BME280;22437;55.646;37.518;2022-09-03T00:02:44;99210.50;;;8.56;62.68
36404;BME280;22437;55.646;37.518;2022-09-03T00:05:22;99217.06;;;8.55;63.33
36404;BME280;22437;55.646;37.518;2022-09-03T00:07:59;99215.16;;;8.55;63.19
36404;BME280;22437;55.646;37.518;2022-09-03T00:10:37;99219.00;;;8.54;63.53
36404;BME280;22437;55.646;37.518;2022-09-03T00:13:16;99220.88;;;8.54;63.26
36404;BME280;22437;55.646;37.518;2022-09-03T00:15:49;99232.72;;;8.49;63.52
36404;BME280;22437;55.646;37.518;2022-09-03T00:18:23;99231.13;;;8.48;63.50
36404;BME280;22437;55.646;37.518;2022-09-03T00:20:57;99231.00;;;8.45;63.25
36404;BME280;22437;55.646;37.518;2022-09-03T00:23:31;99247.53;;;8.34;63.75
36404;BME280;22437;55.646;37.518;2022-09-03T00:26:17;99246.44;;;8.35;64.32
36404;BME280;22437;55.646;37.518;2022-09-03T00:28:54;99253.00;;;8.26;64.37
36404;BME280;22437;55.646;37.518;2022-09-03T00:31:29;99249.19;;;8.18;64.60
36404;BME280;22437;55.646;37.518;2022-09-03T00:34:04;99249.66;;;8.11;64.68
36404;BME280;22437;55.646;37.518;2022-09-03T00:36:39;99253.31;;;7.98;65.00
36404;BME280;22437;55.646;37.518;2022-09-03T00:39:11;99258.09;;;7.92;65.11
36404;BME280;22437;55.646;37.518;2022-09-03T00:41:51;99260.19;;;7.95;65.16
36404;BME280;22437;55.646;37.518;2022-09-03T00:44:46;99260.97;;;7.96;65.58
36404;BME280;22437;55.646;37.518;2022-09-03T00:47:21;99267.81;;;7.84;65.36
36404;BME280;22437;55.646;37.518;2022-09-03T00:49:59;99271.78;;;7.87;65.72
36404;BME280;22437;55.646;37.518;2022-09-03T00:52:40;99270.53;;;7.84;65.55
36404;BME280;22437;55.646;37.518;2022-09-03T00:55:21;99272.44;;;7.84;65.57
36404;BME280;22437;55.646;37.518;2022-09-03T00:58:07;99282.44;;;7.66;66.12
36404;BME280;22437;55.646;37.518;2022-09-03T01:00:41;99271.75;;;7.52;66.24
36404;BME280;22437;55.646;37.518;2022-09-03T01:03:13;99276.53;;;7.55;66.38
36404;BME280;22437;55.646;37.518;2022-09-03T01:09:02;99277.03;;;7.57;66.88
36404;BME280;22437;55.646;37.518;2022-09-03T01:11:45;99276.06;;;7.53;67.08
36404;BME280;22437;55.646;37.518;2022-09-03T01:14:33;99273.19;;;7.58;66.89
36404;BME280;22437;55.646;37.518;2022-09-03T01:17:12;99275.56;;;7.51;67.13
36404;BME280;22437;55.646;37.518;2022-09-03T01:20:02;99275.41;;;7.56;67.24
36404;BME280;22437;55.646;37.518;2022-09-03T01:25:50;99270.31;;;7.46;66.97
36404;BME280;22437;55.646;37.518;2022-09-03T01:28:37;99275.53;;;7.34;67.40
36404;BME280;22437;55.646;37.518;2022-09-03T01:31:17;99280.28;;;7.28;67.48
36404;BME280;22437;55.646;37.518;2022-09-03T01:33:55;99282.06;;;7.33;67.42
36404;BME280;22437;55.646;37.518;2022-09-03T01:36:33;99278.56;;;7.32;67.71
36404;BME280;22437;55.646;37.518;2022-09-03T01:39:09;99290.97;;;7.33;67.44
36404;BME280;22437;55.646;37.518;2022-09-03T01:41:48;99288.25;;;7.33;67.53
36404;BME280;22437;55.646;37.518;2022-09-03T01:48:09;99293.97;;;7.32;67.44
36404;BME280;22437;55.646;37.518;2022-09-03T01:50:43;99303.97;;;7.62;66.80
36404;BME280;22437;55.646;37.518;2022-09-03T01:53:24;99300.03;;;7.29;67.01
36404;BME280;22437;55.646;37.518;2022-09-03T01:56:05;99308.59;;;7.22;67.15
36404;BME280;22437;55.646;37.518;2022-09-03T01:58:43;99317.47;;;7.14;67.48
36404;BME280;22437;55.646;37.518;2022-09-03T02:01:20;99314.94;;;7.17;67.74
36404;BME280;22437;55.646;37.518;2022-09-03T02:03:51;99324.75;;;7.04;67.97
36404;BME280;22437;55.646;37.518;2022-09-03T02:06:27;99321.44;;;7.08;67.93
36404;BME280;22437;55.646;37.518;2022-09-03T02:08:58;99325.72;;;7.09;68.02
36404;BME280;22437;55.646;37.518;2022-09-03T02:11:27;99324.94;;;7.08;67.93
36404;BME280;22437;55.646;37.518;2022-09-03T02:13:57;99332.09;;;7.04;68.14
36404;BME280;22437;55.646;37.518;2022-09-03T02:16:31;99335.28;;;7.06;68.04
36404;BME280;22437;55.646;37.518;2022-09-03T02:19:04;99341.78;;;7.05;68.22
36404;BME280;22437;55.646;37.518;2022-09-03T02:21:39;99335.44;;;7.10;68.10
36404;BME280;22437;55.646;37.518;2022-09-03T02:24:12;99335.75;;;7.08;68.04
36404;BME280;22437;55.646;37.518;2022-09-03T02:26:41;99334.19;;;7.07;67.79
36404;BME280;22437;55.646;37.518;2022-09-03T02:29:12;99341.66;;;7.10;68.04
36404;BME280;22437;55.646;37.518;2022-09-03T02:31:43;99330.22;;;7.13;67.79
36404;BME280;22437;55.646;37.518;2022-09-03T02:34:13;99333.84;;;7.09;68.14
36404;BME280;22437;55.646;37.518;2022-09-03T02:36:47;99343.56;;;7.10;67.76
36404;BME280;22437;55.646;37.518;2022-09-03T02:39:16;99331.97;;;7.18;67.72
36404;BME280;22437;55.646;37.518;2022-09-03T02:41:52;99342.31;;;7.16;67.65
36404;BME280;22437;55.646;37.518;2022-09-03T02:44:26;99346.63;;;7.17;67.75
36404;BME280;22437;55.646;37.518;2022-09-03T02:47:02;99350.94;;;7.18;67.89
36404;BME280;22437;55.646;37.518;2022-09-03T02:49:31;99348.88;;;7.15;67.70
36404;BME280;22437;55.646;37.518;2022-09-03T02:52:03;99350.44;;;7.16;67.54
36404;BME280;22437;55.646;37.518;2022-09-03T02:54:33;99349.47;;;7.12;67.67
36404;BME280;22437;55.646;37.518;2022-09-03T02:57:06;99347.84;;;7.11;67.43
36404;BME280;22437;55.646;37.518;2022-09-03T02:59:36;99359.69;;;7.15;67.51
36404;BME280;22437;55.646;37.518;2022-09-03T03:02:07;99353.50;;;6.92;67.99
36404;BME280;22437;55.646;37.518;2022-09-03T03:04:37;99359.25;;;6.99;68.01
36404;BME280;22437;55.646;37.518;2022-09-03T03:07:07;99361.19;;;6.98;68.08
36404;BME280;22437;55.646;37.518;2022-09-03T03:09:36;99361.97;;;6.99;67.76
36404;BME280;22437;55.646;37.518;2022-09-03T03:12:05;99358.66;;;7.02;67.86
36404;BME280;22437;55.646;37.518;2022-09-03T03:14:36;99359.13;;;7.04;67.57
36404;BME280;22437;55.646;37.518;2022-09-03T03:17:07;99361.34;;;7.02;67.56
36404;BME280;22437;55.646;37.518;2022-09-03T03:19:36;99369.06;;;6.86;67.92
36404;BME280;22437;55.646;37.518;2022-09-03T03:22:05;99364.00;;;6.93;67.77
36404;BME280;22437;55.646;37.518;2022-09-03T03:24:35;99359.56;;;6.97;67.82
36404;BME280;22437;55.646;37.518;2022-09-03T03:27:04;99376.31;;;6.99;67.72
36404;BME280;22437;55.646;37.518;2022-09-03T03:29:37;99375.06;;;7.05;67.87
36404;BME280;22437;55.646;37.518;2022-09-03T03:32:08;99374.44;;;7.09;68.42
36404;BME280;22437;55.646;37.518;2022-09-03T03:34:37;99378.16;;;7.13;68.03
36404;BME280;22437;55.646;37.518;2022-09-03T03:37:10;99380.50;;;7.14;67.78
36404;BME280;22437;55.646;37.518;2022-09-03T03:39:39;99381.81;;;7.17;67.81
36404;BME280;22437;55.646;37.518;2022-09-03T03:42:09;99382.00;;;7.20;67.63
36404;BME280;22437;55.646;37.518;2022-09-03T03:44:38;99383.72;;;7.16;67.41
36404;BME280;22437;55.646;37.518;2022-09-03T03:47:11;99379.81;;;7.31;67.69
36404;BME280;22437;55.646;37.518;2022-09-03T03:49:43;99376.13;;;7.27;67.36
36404;BME280;22437;55.646;37.518;2022-09-03T03:52:12;99380.00;;;7.35;67.46
36404;BME280;22437;55.646;37.518;2022-09-03T03:54:41;99381.81;;;7.48;67.78
36404;BME280;22437;55.646;37.518;2022-09-03T03:57:11;99381.19;;;7.60;67.60
36404;BME280;22437;55.646;37.518;2022-09-03T03:59:40;99388.41;;;7.73;66.85
36404;BME280;22437;55.646;37.518;2022-09-03T04:02:11;99388.94;;;7.93;66.96
36404;BME280;22437;55.646;37.518;2022-09-03T04:04:41;99391.06;;;8.04;66.80
36404;BME280;22437;55.646;37.518;2022-09-03T04:07:10;99391.22;;;8.17;66.10
36404;BME280;22437;55.646;37.518;2022-09-03T04:09:41;99390.31;;;8.39;66.20
36404;BME280;22437;55.646;37.518;2022-09-03T04:12:11;99394.00;;;8.52;65.05
36404;BME280;22437;55.646;37.518;2022-09-03T04:14:41;99397.31;;;8.40;65.17
36404;BME280;22437;55.646;37.518;2022-09-03T04:17:12;99393.84;;;8.57;64.58
36404;BME280;22437;55.646;37.518;2022-09-03T04:19:41;99400.38;;;8.65;64.60
36404;BME280;22437;55.646;37.518;2022-09-03T04:22:12;99398.31;;;8.61;64.34
36404;BME280;22437;55.646;37.518;2022-09-03T04:24:42;99398.47;;;8.74;63.85
36404;BME280;22437;55.646;37.518;2022-09-03T04:27:11;99406.75;;;8.86;63.44
36404;BME280;22437;55.646;37.518;2022-09-03T04:29:40;99401.47;;;8.98;63.16
36404;BME280;22437;55.646;37.518;2022-09-03T04:32:11;99408.00;;;9.06;62.38
36404;BME280;22437;55.646;37.518;2022-09-03T04:34:59;99412.41;;;9.28;61.51
36404;BME280;22437;55.646;37.518;2022-09-03T04:37:30;99404.41;;;9.40;61.73
36404;BME280;22437;55.646;37.518;2022-09-03T04:40:01;99408.56;;;9.38;61.39
36404;BME280;22437;55.646;37.518;2022-09-03T04:42:30;99412.97;;;9.04;61.74
36404;BME280;22437;55.646;37.518;2022-09-03T04:45:01;99409.59;;;9.16;61.92
36404;BME280;22437;55.646;37.518;2022-09-03T04:47:32;99419.41;;;9.38;61.67
36404;BME280;22437;55.646;37.518;2022-09-03T04:50:03;99413.09;;;9.25;61.83
36404;BME280;22437;55.646;37.518;2022-09-03T04:52:33;99413.50;;;9.45;61.02
36404;BME280;22437;55.646;37.518;2022-09-03T04:55:02;99406.63;;;9.47;60.67
36404;BME280;22437;55.646;37.518;2022-09-03T04:57:33;99409.13;;;9.61;60.45
36404;BME280;22437;55.646;37.518;2022-09-03T05:00:08;99405.75;;;9.64;59.90
36404;BME280;22437;55.646;37.518;2022-09-03T05:02:40;99411.84;;;9.61;60.37
36404;BME280;22437;55.646;37.518;2022-09-03T05:05:09;99418.78;;;9.50;60.25
36404;BME280;22437;55.646;37.518;2022-09-03T05:07:39;99417.78;;;9.54;60.18
36404;BME280;22437;55.646;37.518;2022-09-03T05:10:10;99418.25;;;9.56;60.12
36404;BME280;22437;55.646;37.518;2022-09-03T05:12:43;99419.94;;;9.31;60.62
36404;BME280;22437;55.646;37.518;2022-09-03T05:15:12;99414.03;;;9.29;61.35
36404;BME280;22437;55.646;37.518;2022-09-03T05:17:43;99426.47;;;9.30;61.19
36404;BME280;22437;55.646;37.518;2022-09-03T05:20:13;99431.31;;;9.16;61.81
36404;BME280;22437;55.646;37.518;2022-09-03T05:22:43;99422.66;;;9.23;61.99
36404;BME280;22437;55.646;37.518;2022-09-03T05:25:13;99428.09;;;9.31;61.54
36404;BME280;22437;55.646;37.518;2022-09-03T05:27:42;99440.41;;;9.20;62.24
36404;BME280;22437;55.646;37.518;2022-09-03T05:30:13;99432.06;;;9.81;61.51
36404;BME280;22437;55.646;37.518;2022-09-03T05:32:44;99440.03;;;9.48;61.04
36404;BME280;22437;55.646;37.518;2022-09-03T05:35:14;99444.00;;;9.50;60.94
36404;BME280;22437;55.646;37.518;2022-09-03T05:37:43;99437.00;;;9.40;61.27
36404;BME280;22437;55.646;37.518;2022-09-03T05:40:13;99444.78;;;9.51;61.70
36404;BME280;22437;55.646;37.518;2022-09-03T05:42:42;99437.72;;;9.67;60.86
36404;BME280;22437;55.646;37.518;2022-09-03T05:45:11;99442.00;;;9.68;61.21
36404;BME280;22437;55.646;37.518;2022-09-03T05:47:41;99448.38;;;9.81;60.71
36404;BME280;22437;55.646;37.518;2022-09-03T05:50:11;99449.97;;;9.82;60.39
36404;BME280;22437;55.646;37.518;2022-09-03T05:52:41;99446.81;;;10.01;60.08
36404;BME280;22437;55.646;37.518;2022-09-03T05:55:10;99449.44;;;9.97;59.85
36404;BME280;22437;55.646;37.518;2022-09-03T05:57:41;99451.91;;;10.11;59.40
36404;BME280;22437;55.646;37.518;2022-09-03T06:00:12;99460.81;;;10.21;59.45
36404;BME280;22437;55.646;37.518;2022-09-03T06:02:42;99458.00;;;10.08;59.86
36404;BME280;22437;55.646;37.518;2022-09-03T06:05:13;99459.59;;;10.09;60.00
36404;BME280;22437;55.646;37.518;2022-09-03T06:07:43;99452.13;;;10.36;58.42
36404;BME280;22437;55.646;37.518;2022-09-03T06:10:16;99456.38;;;10.67;57.47
36404;BME280;22437;55.646;37.518;2022-09-03T06:12:52;99466.22;;;10.80;57.14
36404;BME280;22437;55.646;37.518;2022-09-03T06:15:22;99461.03;;;10.87;56.77
36404;BME280;22437;55.646;37.518;2022-09-03T06:17:51;99460.56;;;11.06;55.90
36404;BME280;22437;55.646;37.518;2022-09-03T06:20:22;99473.44;;;11.30;55.41
36404;BME280;22437;55.646;37.518;2022-09-03T06:22:54;99466.81;;;11.52;54.60
36404;BME280;22437;55.646;37.518;2022-09-03T06:25:24;99471.03;;;11.62;54.05
36404;BME280;22437;55.646;37.518;2022-09-03T06:27:54;99475.19;;;11.93;54.44
36404;BME280;22437;55.646;37.518;2022-09-03T06:30:24;99468.91;;;12.42;52.90
36404;BME280;22437;55.646;37.518;2022-09-03T06:32:54;99469.28;;;13.65;49.29
36404;BME280;22437;55.646;37.518;2022-09-03T06:35:26;99468.78;;;14.59;45.81
36404;BME280;22437;55.646;37.518;2022-09-03T06:37:57;99473.56;;;15.01;44.24
36404;BME280;22437;55.646;37.518;2022-09-03T06:40:27;99464.44;;;15.36;43.48
36404;BME280;22437;55.646;37.518;2022-09-03T06:42:58;99464.88;;;15.57;42.40
36404;BME280;22437;55.646;37.518;2022-09-03T06:45:27;99474.88;;;16.15;40.98
36404;BME280;22437;55.646;37.518;2022-09-03T06:47:58;99468.25;;;16.47;41.04
36404;BME280;22437;55.646;37.518;2022-09-03T06:50:29;99462.56;;;17.60;38.62
36404;BME280;22437;55.646;37.518;2022-09-03T06:53:01;99463.03;;;18.14;37.13
36404;BME280;22437;55.646;37.518;2022-09-03T06:55:32;99469.94;;;17.49;37.99
36404;BME280;22437;55.646;37.518;2022-09-03T06:58:02;99470.03;;;18.01;36.22
36404;BME280;22437;55.646;37.518;2022-09-03T07:00:32;99469.50;;;17.47;36.83
36404;BME280;22437;55.646;37.518;2022-09-03T07:03:01;99470.97;;;17.78;36.17
36404;BME280;22437;55.646;37.518;2022-09-03T07:05:32;99479.56;;;18.73;34.17
36404;BME280;22437;55.646;37.518;2022-09-03T07:08:01;99473.75;;;18.23;35.08
36404;BME280;22437;55.646;37.518;2022-09-03T07:10:35;99473.13;;;19.39;32.54
36404;BME280;22437;55.646;37.518;2022-09-03T07:13:05;99478.78;;;18.14;34.32
36404;BME280;22437;55.646;37.518;2022-09-03T07:15:34;99473.31;;;18.17;34.98
36404;BME280;22437;55.646;37.518;2022-09-03T07:18:04;99476.00;;;17.66;33.84
36404;BME280;22437;55.646;37.518;2022-09-03T07:20:38;99488.38;;;17.11;36.41
36404;BME280;22437;55.646;37.518;2022-09-03T07:23:07;99473.47;;;17.50;35.08
36404;BME280;22437;55.646;37.518;2022-09-03T07:25:38;99485.81;;;18.70;32.74
36404;BME280;22437;55.646;37.518;2022-09-03T07:28:07;99478.84;;;18.84;32.63
36404;BME280;22437;55.646;37.518;2022-09-03T07:30:37;99478.31;;;19.59;31.64
36404;BME280;22437;55.646;37.518;2022-09-03T07:33:06;99475.19;;;20.21;29.88
36404;BME280;22437;55.646;37.518;2022-09-03T07:35:39;99484.69;;;20.20;30.01
36404;BME280;22437;55.646;37.518;2022-09-03T07:38:08;99477.97;;;19.74;30.09
36404;BME280;22437;55.646;37.518;2022-09-03T07:40:38;99470.44;;;20.36;28.88
36404;BME280;22437;55.646;37.518;2022-09-03T07:43:08;99479.53;;;20.15;29.87
36404;BME280;22437;55.646;37.518;2022-09-03T07:45:37;99486.25;;;20.07;29.82
36404;BME280;22437;55.646;37.518;2022-09-03T07:48:08;99483.88;;;20.41;29.13
36404;BME280;22437;55.646;37.518;2022-09-03T07:50:42;99477.13;;;20.64;28.49
36404;BME280;22437;55.646;37.518;2022-09-03T07:53:11;99478.66;;;20.83;29.17
36404;BME280;22437;55.646;37.518;2022-09-03T07:55:41;99484.38;;;21.28;28.41
36404;BME280;22437;55.646;37.518;2022-09-03T07:58:12;99472.31;;;21.67;27.38
36404;BME280;22437;55.646;37.518;2022-09-03T08:00:42;99477.56;;;21.43;27.93
36404;BME280;22437;55.646;37.518;2022-09-03T08:03:12;99474.97;;;21.81;27.33
36404;BME280;22437;55.646;37.518;2022-09-03T08:05:43;99474.97;;;21.81;26.96
36404;BME280;22437;55.646;37.518;2022-09-03T08:08:13;99477.78;;;21.04;27.66
36404;BME280;22437;55.646;37.518;2022-09-03T08:10:46;99471.88;;;20.98;27.47
36404;BME280;22437;55.646;37.518;2022-09-03T08:13:15;99472.69;;;20.95;28.16
36404;BME280;22437;55.646;37.518;2022-09-03T08:15:53;99463.41;;;22.39;26.84
36404;BME280;22437;55.646;37.518;2022-09-03T08:18:29;99464.56;;;21.96;26.92
36404;BME280;22437;55.646;37.518;2022-09-03T08:21:08;99468.59;;;21.88;27.03
36404;BME280;22437;55.646;37.518;2022-09-03T08:23:43;99471.41;;;22.71;25.60
36404;BME280;22437;55.646;37.518;2022-09-03T08:26:14;99464.66;;;21.15;27.38
36404;BME280;22437;55.646;37.518;2022-09-03T08:28:46;99468.13;;;21.44;27.42
36404;BME280;22437;55.646;37.518;2022-09-03T08:31:19;99475.81;;;21.75;26.24
36404;BME280;22437;55.646;37.518;2022-09-03T08:33:53;99467.19;;;21.62;26.56
36404;BME280;22437;55.646;37.518;2022-09-03T08:36:27;99469.00;;;21.86;26.41
36404;BME280;22437;55.646;37.518;2022-09-03T08:39:01;99477.16;;;20.13;28.12
36404;BME280;22437;55.646;37.518;2022-09-03T08:41:40;99481.59;;;18.84;30.98
36404;BME280;22437;55.646;37.518;2022-09-03T08:44:21;99477.38;;;17.86;32.53
36404;BME280;22437;55.646;37.518;2022-09-03T08:46:58;99466.47;;;19.47;30.21
36404;BME280;22437;55.646;37.518;2022-09-03T08:49:34;99467.66;;;21.53;27.41
36404;BME280;22437;55.646;37.518;2022-09-03T08:52:20;99462.38;;;23.29;25.03
36404;BME280;22437;55.646;37.518;2022-09-03T08:55:15;99461.72;;;23.75;24.20
36404;BME280;22437;55.646;37.518;2022-09-03T08:57:51;99468.31;;;24.09;23.29
36404;BME280;22437;55.646;37.518;2022-09-03T09:00:24;99467.00;;;23.93;22.83
36404;BME280;22437;55.646;37.518;2022-09-03T09:03:09;99464.59;;;24.62;22.07
36404;BME280;22437;55.646;37.518;2022-09-03T09:05:47;99456.50;;;24.48;22.56
36404;BME280;22437;55.646;37.518;2022-09-03T09:08:31;99460.22;;;23.67;23.81
36404;BME280;22437;55.646;37.518;2022-09-03T09:11:07;99455.41;;;23.98;23.01
36404;BME280;22437;55.646;37.518;2022-09-03T09:13:43;99455.56;;;24.11;23.10
36404;BME280;22437;55.646;37.518;2022-09-03T09:16:22;99450.16;;;24.48;21.80
36404;BME280;22437;55.646;37.518;2022-09-03T09:19:09;99460.34;;;22.67;23.23
36404;BME280;22437;55.646;37.518;2022-09-03T09:21:46;99458.72;;;21.20;25.10
36404;BME280;22437;55.646;37.518;2022-09-03T09:24:24;99461.72;;;21.51;24.69
36404;BME280;22437;55.646;37.518;2022-09-03T09:26:58;99463.72;;;20.37;25.65
36404;BME280;22437;55.646;37.518;2022-09-03T09:29:32;99464.91;;;19.61;26.81
36404;BME280;22437;55.646;37.518;2022-09-03T09:32:08;99471.31;;;18.14;29.10
36404;BME280;22437;55.646;37.518;2022-09-03T09:34:40;99466.56;;;17.67;30.10
36404;BME280;22437;55.646;37.518;2022-09-03T09:37:19;99461.66;;;17.90;29.00
36404;BME280;22437;55.646;37.518;2022-09-03T09:39:56;99463.03;;;17.29;30.21
36404;BME280;22437;55.646;37.518;2022-09-03T09:42:26;99462.69;;;17.75;30.26
36404;BME280;22437;55.646;37.518;2022-09-03T09:45:09;99467.19;;;19.37;28.02
36404;BME280;22437;55.646;37.518;2022-09-03T09:47:40;99455.81;;;19.64;26.55
36404;BME280;22437;55.646;37.518;2022-09-03T09:50:17;99453.19;;;18.79;28.18
36404;BME280;22437;55.646;37.518;2022-09-03T09:53:01;99457.63;;;18.25;29.22
36404;BME280;22437;55.646;37.518;2022-09-03T09:55:48;99451.84;;;19.40;27.76
36404;BME280;22437;55.646;37.518;2022-09-03T09:58:21;99447.91;;;19.30;27.33
36404;BME280;22437;55.646;37.518;2022-09-03T10:00:59;99449.00;;;19.04;28.46
36404;BME280;22437;55.646;37.518;2022-09-03T10:03:33;99445.59;;;21.35;25.67
36404;BME280;22437;55.646;37.518;2022-09-03T10:06:07;99441.16;;;23.42;22.20
36404;BME280;22437;55.646;37.518;2022-09-03T10:09:06;99445.66;;;21.84;23.76
36404;BME280;22437;55.646;37.518;2022-09-03T10:11:51;99438.47;;;20.35;25.81
36404;BME280;22437;55.646;37.518;2022-09-03T10:14:28;99441.97;;;21.49;24.69
36404;BME280;22437;55.646;37.518;2022-09-03T10:17:05;99445.34;;;22.20;23.22
36404;BME280;22437;55.646;37.518;2022-09-03T10:19:47;99447.13;;;21.99;23.52
36404;BME280;22437;55.646;37.518;2022-09-03T10:22:48;99445.72;;;21.14;24.65
36404;BME280;22437;55.646;37.518;2022-09-03T10:25:35;99447.19;;;19.87;26.31
36404;BME280;22437;55.646;37.518;2022-09-03T10:28:10;99451.44;;;17.87;29.90
36404;BME280;22437;55.646;37.518;2022-09-03T10:31:11;99448.31;;;17.51;30.69
36404;BME280;22437;55.646;37.518;2022-09-03T10:33:47;99453.69;;;17.37;30.69
36404;BME280;22437;55.646;37.518;2022-09-03T10:36:27;99458.38;;;17.36;30.92
36404;BME280;22437;55.646;37.518;2022-09-03T10:39:04;99451.56;;;17.23;31.09
36404;BME280;22437;55.646;37.518;2022-09-03T10:41:43;99450.31;;;17.17;31.50
36404;BME280;22437;55.646;37.518;2022-09-03T10:44:38;99454.53;;;17.41;31.67
36404;BME280;22437;55.646;37.518;2022-09-03T10:47:23;99459.66;;;17.46;32.10
36404;BME280;22437;55.646;37.518;2022-09-03T10:50:02;99455.88;;;17.61;31.46
36404;BME280;22437;55.646;37.518;2022-09-03T10:52:44;99466.47;;;18.56;29.80
36404;BME280;22437;55.646;37.518;2022-09-03T10:55:24;99457.38;;;20.47;25.57
36404;BME280;22437;55.646;37.518;2022-09-03T10:58:10;99450.47;;;22.28;24.09
36404;BME280;22437;55.646;37.518;2022-09-03T11:00:53;99452.13;;;23.53;22.37
36404;BME280;22437;55.646;37.518;2022-09-03T11:03:42;99447.00;;;24.46;21.76
36404;BME280;22437;55.646;37.518;2022-09-03T11:06:17;99444.09;;;25.13;20.90
36404;BME280;22437;55.646;37.518;2022-09-03T11:08:53;99443.03;;;24.47;22.07
36404;BME280;22437;55.646;37.518;2022-09-03T11:11:36;99441.97;;;23.12;23.09
36404;BME280;22437;55.646;37.518;2022-09-03T11:14:15;99437.19;;;23.94;21.89
36404;BME280;22437;55.646;37.518;2022-09-03T11:17:02;99435.56;;;23.18;22.04
36404;BME280;22437;55.646;37.518;2022-09-03T11:19:41;99439.84;;;22.16;23.40
36404;BME280;22437;55.646;37.518;2022-09-03T11:22:18;99440.47;;;21.30;25.00
36404;BME280;22437;55.646;37.518;2022-09-03T11:27:36;99445.56;;;19.53;26.79
36404;BME280;22437;55.646;37.518;2022-09-03T11:30:23;99446.56;;;18.88;28.20
36404;BME280;22437;55.646;37.518;2022-09-03T11:32:58;99446.22;;;18.27;30.01
36404;BME280;22437;55.646;37.518;2022-09-03T11:35:37;99445.13;;;17.46;32.16
36404;BME280;22437;55.646;37.518;2022-09-03T11:38:20;99441.09;;;17.36;32.50
36404;BME280;22437;55.646;37.518;2022-09-03T11:40:58;99438.00;;;16.73;33.11
36404;BME280;22437;55.646;37.518;2022-09-03T11:43:30;99439.94;;;16.42;33.23
36404;BME280;22437;55.646;37.518;2022-09-03T11:46:06;99434.84;;;16.71;33.11
36404;BME280;22437;55.646;37.518;2022-09-03T11:48:52;99429.97;;;16.88;31.85
36404;BME280;22437;55.646;37.518;2022-09-03T11:51:32;99432.50;;;17.03;31.78
36404;BME280;22437;55.646;37.518;2022-09-03T11:54:06;99431.34;;;17.05;30.98
36404;BME280;22437;55.646;37.518;2022-09-03T11:57:14;99420.66;;;17.33;30.78
36404;BME280;22437;55.646;37.518;2022-09-03T11:59:51;99427.50;;;18.57;29.22
36404;BME280;22437;55.646;37.518;2022-09-03T12:02:25;99412.59;;;20.96;26.38
36404;BME280;22437;55.646;37.518;2022-09-03T12:05:29;99411.97;;;22.34;23.96
36404;BME280;22437;55.646;37.518;2022-09-03T12:08:18;99407.28;;;22.24;23.85
36404;BME280;22437;55.646;37.518;2022-09-03T12:10:56;99401.16;;;20.93;24.77
36404;BME280;22437;55.646;37.518;2022-09-03T12:13:43;99412.03;;;20.23;25.42
36404;BME280;22437;55.646;37.518;2022-09-03T12:19:30;99391.91;;;19.22;27.46
36404;BME280;22437;55.646;37.518;2022-09-03T12:22:03;99385.97;;;19.09;27.33
36404;BME280;22437;55.646;37.518;2022-09-03T12:24:34;99401.84;;;18.46;28.70
36404;BME280;22437;55.646;37.518;2022-09-03T12:27:08;99404.75;;;18.05;29.17
36404;BME280;22437;55.646;37.518;2022-09-03T12:29:51;99384.38;;;18.20;29.58
36404;BME280;22437;55.646;37.518;2022-09-03T12:32:33;99393.31;;;17.99;30.44
36404;BME280;22437;55.646;37.518;2022-09-03T12:35:13;99388.53;;;17.93;30.50
36404;BME280;22437;55.646;37.518;2022-09-03T12:38:12;99379.31;;;17.74;31.04
36404;BME280;22437;55.646;37.518;2022-09-03T12:40:45;99379.53;;;17.51;30.94
36404;BME280;22437;55.646;37.518;2022-09-03T12:43:39;99377.31;;;17.23;31.43
36404;BME280;22437;55.646;37.518;2022-09-03T12:46:24;99382.09;;;17.30;31.40
36404;BME280;22437;55.646;37.518;2022-09-03T12:49:07;99376.41;;;17.08;31.76
36404;BME280;22437;55.646;37.518;2022-09-03T12:52:01;99378.13;;;17.27;31.60
36404;BME280;22437;55.646;37.518;2022-09-03T12:54:37;99374.56;;;17.23;32.23
36404;BME280;22437;55.646;37.518;2022-09-03T12:57:20;99367.66;;;17.85;31.66
36404;BME280;22437;55.646;37.518;2022-09-03T12:59:55;99369.31;;;18.04;31.36
36404;BME280;22437;55.646;37.518;2022-09-03T13:02:29;99368.91;;;18.78;29.81
36404;BME280;22437;55.646;37.518;2022-09-03T13:05:09;99376.16;;;19.59;28.96
36404;BME280;22437;55.646;37.518;2022-09-03T13:07:45;99366.31;;;19.58;28.93
36404;BME280;22437;55.646;37.518;2022-09-03T13:10:26;99358.00;;;19.11;29.85
36404;BME280;22437;55.646;37.518;2022-09-03T13:12:59;99360.56;;;18.57;30.91
36404;BME280;22437;55.646;37.518;2022-09-03T13:15:31;99359.63;;;18.24;31.38
36404;BME280;22437;55.646;37.518;2022-09-03T13:18:18;99361.53;;;18.13;31.78
36404;BME280;22437;55.646;37.518;2022-09-03T13:21:02;99366.59;;;18.07;31.92
36404;BME280;22437;55.646;37.518;2022-09-03T13:23:52;99367.00;;;18.09;31.33
36404;BME280;22437;55.646;37.518;2022-09-03T13:26:39;99362.38;;;18.24;30.89
36404;BME280;22437;55.646;37.518;2022-09-03T13:32:19;99350.66;;;17.31;32.72
36404;BME280;22437;55.646;37.518;2022-09-03T13:35:01;99359.13;;;17.11;33.50
36404;BME280;22437;55.646;37.518;2022-09-03T13:37:38;99363.34;;;17.01;33.42
36404;BME280;22437;55.646;37.518;2022-09-03T13:40:21;99357.06;;;17.42;33.20
36404;BME280;22437;55.646;37.518;2022-09-03T13:43:00;99366.97;;;17.50;32.97
36404;BME280;22437;55.646;37.518;2022-09-03T13:45:37;99358.00;;;17.16;33.19
36404;BME280;22437;55.646;37.518;2022-09-03T13:48:13;99358.91;;;16.90;33.90
36404;BME280;22437;55.646;37.518;2022-09-03T13:51:09;99351.03;;;17.26;33.43
36404;BME280;22437;55.646;37.518;2022-09-03T13:53:56;99349.56;;;17.87;32.15
36404;BME280;22437;55.646;37.518;2022-09-03T13:56:46;99349.66;;;18.05;32.00